Time;durP1;ratioP1;P1;durP2;ratioP2;P2;SDS_P1;SDS_P2;PMS_P1;PMS_P2;Temp;Humidity;BMP_temperature;BMP_pressure;BME280_temperature;BME280_humidity;BME280_pressure;Samples;Min_cycle;Max_cycle;Signal;HPM_P1;HPM_P2
2021/09/09 00:00:40;;;;;;;5.60;5.10;;;;;;;16.73;72.57;95388.88;5014296;28;20484;-82
2021/09/09 00:03:07;;;;;;;5.30;4.90;;;;;;;16.73;72.98;95390.69;5032756;28;20448;-83
2021/09/09 00:05:34;;;;;;;9.30;6.20;;;;;;;16.76;72.93;95389.53;5032260;28;20435;-82
2021/09/09 00:08:01;;;;;;;6.77;6.17;;;;;;;16.82;72.56;95386.28;5032717;28;20433;-82
2021/09/09 00:10:28;;;;;;;7.00;5.40;;;;;;;16.86;72.85;95391.13;5032383;28;20446;-82
2021/09/09 00:12:55;;;;;;;9.33;6.10;;;;;;;16.95;71.73;95397.31;5032553;28;20481;-82
2021/09/09 00:15:23;;;;;;;5.73;5.23;;;;;;;16.98;71.92;95391.69;5032538;28;20547;-82
2021/09/09 00:17:50;;;;;;;8.00;5.10;;;;;;;17.06;71.68;95394.41;5032565;28;20537;-82
2021/09/09 00:20:17;;;;;;;5.97;5.30;;;;;;;16.95;72.30;95394.66;5032113;28;20989;-82
2021/09/09 00:22:44;;;;;;;5.70;5.30;;;;;;;16.89;72.00;95395.28;5032443;28;20926;-82
2021/09/09 00:25:12;;;;;;;8.93;6.40;;;;;;;16.94;72.42;95393.81;5032082;28;20453;-82
2021/09/09 00:27:39;;;;;;;6.60;6.00;;;;;;;16.88;72.43;95391.78;5032394;28;20460;-82
2021/09/09 00:30:07;;;;;;;7.87;6.70;;;;;;;16.93;72.78;95391.31;5032544;28;21133;-82
2021/09/09 00:32:35;;;;;;;6.63;6.07;;;;;;;16.83;72.42;95391.44;5013651;28;20938;-82
2021/09/09 00:35:02;;;;;;;16.73;6.40;;;;;;;16.88;72.85;95399.75;5032752;28;20521;-82
2021/09/09 00:37:29;;;;;;;7.83;6.43;;;;;;;16.72;73.05;95392.50;5032352;28;20533;-82
2021/09/09 00:39:56;;;;;;;6.57;6.03;;;;;;;16.69;74.08;95395.47;5032243;28;20450;-82
2021/09/09 00:42:23;;;;;;;7.00;6.33;;;;;;;16.72;73.98;95387.22;5032246;28;20486;-83
2021/09/09 00:44:50;;;;;;;6.53;5.50;;;;;;;16.71;74.16;95382.91;5032090;28;20451;-82
2021/09/09 00:47:17;;;;;;;7.60;6.87;;;;;;;16.78;74.09;95384.94;5032413;28;20540;-82
2021/09/09 00:49:46;;;;;;;9.17;6.50;;;;;;;16.78;73.72;95384.94;5032122;28;20431;-82
2021/09/09 00:52:14;;;;;;;7.03;6.33;;;;;;;16.80;73.53;95381.16;5032122;28;20739;-82
2021/09/09 00:54:42;;;;;;;8.03;6.33;;;;;;;16.89;74.42;95382.84;5031904;28;20452;-82
2021/09/09 00:57:09;;;;;;;7.07;6.37;;;;;;;16.92;74.44;95387.00;5032186;28;20448;-82
2021/09/09 00:59:36;;;;;;;7.47;6.88;;;;;;;16.89;73.41;95387.31;5031922;28;20443;-82
2021/09/09 01:02:04;;;;;;;7.90;6.90;;;;;;;16.92;74.30;95384.34;5031961;28;20220;-82
2021/09/09 01:04:32;;;;;;;6.90;6.33;;;;;;;16.94;74.08;95385.88;5036072;28;21021;-82
2021/09/09 01:07:01;;;;;;;8.90;7.47;;;;;;;16.91;73.76;95388.00;5035733;28;20446;-82
2021/09/09 01:09:28;;;;;;;7.30;6.70;;;;;;;16.89;73.71;95389.97;5035635;28;20490;-82
2021/09/09 01:11:55;;;;;;;7.97;6.90;;;;;;;16.91;74.13;95385.34;5035739;28;20445;-82
2021/09/09 01:14:23;;;;;;;7.70;7.00;;;;;;;16.92;74.22;95395.78;5017046;28;20949;-82
2021/09/09 01:16:50;;;;;;;7.60;6.90;;;;;;;16.96;74.84;95393.66;5035866;28;20944;-82
2021/09/09 01:19:18;;;;;;;8.00;7.20;;;;;;;16.96;74.09;95391.00;5035674;28;20902;-82
2021/09/09 01:21:46;;;;;;;8.00;6.97;;;;;;;16.92;74.52;95397.63;5016948;28;20486;-82
2021/09/09 01:24:15;;;;;;;8.00;7.30;;;;;;;16.89;74.63;95393.47;5035632;28;20452;-82
2021/09/09 01:26:52;;;;;;;12.63;7.20;;;;;;;16.90;74.20;95392.47;5035185;28;20934;-82
2021/09/09 01:29:20;;;;;;;8.97;8.07;;;;;;;16.93;74.61;95391.31;5035385;28;20465;-82
2021/09/09 01:31:47;;;;;;;8.20;7.40;;;;;;;16.94;74.60;95395.63;5035017;28;20445;-82
2021/09/09 01:34:14;;;;;;;9.00;8.10;;;;;;;16.95;74.97;95390.19;5035164;28;20446;-82
2021/09/09 01:36:41;;;;;;;8.33;7.53;;;;;;;16.89;75.13;95392.63;5035382;28;20438;-82
2021/09/09 01:39:08;;;;;;;11.20;7.90;;;;;;;16.92;75.46;95393.16;5035571;28;20518;-82
2021/09/09 01:41:37;;;;;;;8.50;7.77;;;;;;;16.92;75.15;95397.63;5034953;28;20483;-82
2021/09/09 01:44:04;;;;;;;7.60;6.90;;;;;;;16.82;75.32;95404.84;5034963;28;20449;-82
2021/09/09 01:46:32;;;;;;;8.47;7.73;;;;;;;16.83;75.36;95398.56;5035107;28;20480;-82
2021/09/09 01:48:59;;;;;;;8.90;8.17;;;;;;;16.83;75.50;95402.03;5035045;28;20455;-82
2021/09/09 01:51:26;;;;;;;8.20;7.57;;;;;;;16.86;75.86;95400.91;5034833;28;20454;-82
2021/09/09 01:53:54;;;;;;;7.33;6.80;;;;;;;16.91;75.13;95399.44;5034717;28;20454;-82
2021/09/09 01:56:21;;;;;;;8.30;7.53;;;;;;;16.93;74.66;95401.94;5034533;28;20457;-83
2021/09/09 01:58:50;;;;;;;8.60;7.90;;;;;;;16.95;74.97;95402.59;5034663;28;20521;-82
2021/09/09 02:01:18;;;;;;;13.07;8.20;;;;;;;16.96;75.18;95397.13;5016170;28;20474;-82
2021/09/09 02:03:45;;;;;;;10.20;9.20;;;;;;;16.96;75.28;95404.25;5034775;28;20450;-82
2021/09/09 02:06:12;;;;;;;8.50;7.80;;;;;;;16.84;75.19;95398.41;5015925;28;21013;-82
2021/09/09 02:08:39;;;;;;;14.00;8.60;;;;;;;16.82;75.24;95391.59;5034374;28;20443;-82
2021/09/09 02:11:06;;;;;;;9.37;8.47;;;;;;;16.74;75.34;95387.06;5016011;28;20446;-82
2021/09/09 02:13:33;;;;;;;8.30;7.60;;;;;;;16.76;75.77;95387.72;5033783;28;20444;-82
2021/09/09 02:16:02;;;;;;;12.17;8.27;;;;;;;16.73;75.57;95388.88;5034099;28;20457;-82
2021/09/09 02:18:29;;;;;;;7.90;7.20;;;;;;;16.72;76.11;95389.84;5034171;28;20447;-82
2021/09/09 02:20:56;;;;;;;10.93;8.07;;;;;;;16.44;77.01;95390.94;5034379;28;20495;-82
2021/09/09 02:23:23;;;;;;;9.47;8.60;;;;;;;16.41;77.84;95392.09;5034332;28;20459;-83
2021/09/09 02:25:50;;;;;;;9.00;7.77;;;;;;;16.32;77.81;95397.47;5033983;28;20450;-82
2021/09/09 02:28:17;;;;;;;8.47;7.30;;;;;;;16.32;77.66;95398.31;5034322;28;20452;-82
2021/09/09 02:30:44;;;;;;;8.27;7.53;;;;;;;16.37;76.90;95397.84;5034093;28;20451;-82
2021/09/09 02:33:12;;;;;;;8.73;8.00;;;;;;;16.43;76.85;95398.06;5034131;28;20440;-82
2021/09/09 02:35:42;;;;;;;8.67;7.53;;;;;;;16.50;76.97;95393.00;5034085;28;20445;-83
2021/09/09 02:38:09;;;;;;;12.13;8.37;;;;;;;16.42;77.20;95400.84;5034196;28;20534;-82
2021/09/09 02:40:36;;;;;;;8.47;7.63;;;;;;;16.44;77.63;95398.88;5034027;28;20451;-82
2021/09/09 02:43:03;;;;;;;7.67;6.90;;;;;;;16.45;77.84;95397.06;5033724;28;20851;-82
2021/09/09 02:45:30;;;;;;;7.37;6.70;;;;;;;16.37;77.59;95392.53;5033877;28;20479;-82
2021/09/09 02:47:57;;;;;;;12.70;6.67;;;;;;;16.40;77.56;95384.28;5033716;28;20445;-82
2021/09/09 02:50:25;;;;;;;7.63;6.93;;;;;;;16.53;77.74;95389.22;5033769;28;20455;-82
2021/09/09 02:52:52;;;;;;;8.03;7.43;;;;;;;16.60;77.91;95392.91;5033940;28;20458;-82
2021/09/09 02:55:19;;;;;;;11.03;7.47;;;;;;;16.64;77.48;95386.28;5033708;28;20442;-82
2021/09/09 02:57:46;;;;;;;7.90;7.27;;;;;;;16.66;78.03;95387.84;5033625;28;20440;-82
2021/09/09 03:00:15;;;;;;;9.67;7.40;;;;;;;16.70;78.24;95394.47;5033415;28;20453;-82
2021/09/09 03:02:41;;;;;;;8.30;7.00;;;;;;;16.65;77.42;95385.31;5033314;28;21070;-82
2021/09/09 03:05:11;;;;;;;7.87;7.17;;;;;;;16.67;77.41;95394.78;4998702;28;20446;-82
2021/09/09 03:07:39;;;;;;;12.43;7.27;;;;;;;16.64;77.69;95383.66;5033963;28;20437;-82
2021/09/09 03:10:07;;;;;;;8.80;7.13;;;;;;;16.63;77.72;95392.59;5033743;28;20484;-82
2021/09/09 03:12:34;;;;;;;7.83;7.13;;;;;;;16.57;77.92;95388.75;5033536;28;20439;-82
2021/09/09 03:15:01;;;;;;;13.37;8.17;;;;;;;16.55;78.34;95393.38;5014931;28;20453;-82
2021/09/09 03:17:28;;;;;;;8.37;7.57;;;;;;;16.43;78.90;95395.41;5033690;28;20462;-82
2021/09/09 03:19:55;;;;;;;8.10;7.30;;;;;;;16.37;78.63;95387.25;5033331;28;20550;-82
2021/09/09 03:22:22;;;;;;;7.53;6.93;;;;;;;16.35;78.76;95389.22;5033068;28;20484;-83
2021/09/09 03:24:50;;;;;;;7.83;7.13;;;;;;;16.30;79.65;95399.44;5033322;28;20879;-82
2021/09/09 03:27:17;;;;;;;10.20;6.43;;;;;;;15.88;81.64;95397.38;5033301;28;20453;-82
2021/09/09 03:29:44;;;;;;;12.73;6.43;;;;;;;15.94;81.11;95393.31;5033450;28;20512;-82
2021/09/09 03:32:11;;;;;;;9.10;6.43;;;;;;;16.00;81.23;95400.66;5030803;28;20437;-82
2021/09/09 03:34:38;;;;;;;6.87;6.20;;;;;;;15.99;81.52;95391.06;5033921;28;20530;-82
2021/09/09 03:37:05;;;;;;;6.95;6.35;;;;;;;16.03;80.98;95392.41;5033949;28;20441;-81
2021/09/09 03:39:32;;;;;;;6.90;6.30;;;;;;;16.06;80.55;95387.66;5033869;28;20225;-82
2021/09/09 03:52:45;;;;;;;7.63;6.60;;;;;;;16.13;80.71;95387.03;5025394;28;20466;-82
2021/09/09 03:55:12;;;;;;;9.60;6.13;;;;;;;16.04;80.70;95396.72;5015542;28;20444;-82
2021/09/09 03:57:39;;;;;;;7.03;6.30;;;;;;;16.00;80.39;95388.25;5015430;28;20528;-82
2021/09/09 04:00:08;;;;;;;7.60;6.03;;;;;;;16.01;81.13;95386.44;5015619;28;20559;-82
2021/09/09 04:02:35;;;;;;;6.70;6.00;;;;;;;16.04;81.56;95386.13;5015640;28;20565;-81
2021/09/09 04:05:02;;;;;;;10.40;6.33;;;;;;;16.09;81.31;95389.16;5033850;28;20443;-82
2021/09/09 04:07:29;;;;;;;6.60;5.37;;;;;;;15.81;81.20;95383.09;5033851;28;20436;-81
2021/09/09 04:13:19;;;;;;;6.70;5.77;;;;;;;15.97;81.37;95385.09;5032260;28;20758;-82
2021/09/09 04:15:46;;;;;;;8.27;5.70;;;;;;;15.95;81.46;95387.88;5033339;28;20441;-82
2021/09/09 04:18:13;;;;;;;8.70;6.30;;;;;;;16.13;81.08;95384.38;5014141;28;20528;-86
2021/09/09 04:20:40;;;;;;;11.60;6.27;;;;;;;16.13;80.46;95385.22;5033425;28;20282;-86
2021/09/09 04:23:07;;;;;;;7.90;5.77;;;;;;;16.23;80.32;95379.88;5033059;28;20476;-86
2021/09/09 04:25:34;;;;;;;7.30;6.60;;;;;;;16.28;80.73;95377.59;5033732;28;20455;-86
2021/09/09 04:28:01;;;;;;;14.07;6.50;;;;;;;16.33;80.22;95377.94;5033912;28;20430;-83
2021/09/09 04:30:29;;;;;;;8.57;5.93;;;;;;;16.39;80.05;95378.16;5014968;28;20526;-80
2021/09/09 04:32:56;;;;;;;10.90;6.63;;;;;;;16.47;79.79;95366.78;5033264;28;20447;-80
2021/09/09 04:35:23;;;;;;;8.97;5.30;;;;;;;16.53;80.04;95370.66;5032835;28;20461;-81
2021/09/09 04:37:50;;;;;;;16.53;6.03;;;;;;;16.56;80.03;95376.47;5033652;28;20545;-80
2021/09/09 04:40:17;;;;;;;14.70;6.00;;;;;;;16.64;79.34;95381.81;5017703;28;20525;-81
2021/09/09 04:42:44;;;;;;;9.07;7.00;;;;;;;16.69;78.89;95376.91;5036409;28;20485;-80
2021/09/09 04:45:12;;;;;;;7.00;6.40;;;;;;;16.68;78.49;95379.72;5036753;28;20521;-80
2021/09/09 04:47:40;;;;;;;6.57;5.90;;;;;;;16.75;78.96;95377.28;5035935;28;20953;-80
2021/09/09 04:50:09;;;;;;;10.63;6.30;;;;;;;16.82;78.01;95370.41;5035944;28;20493;-80
2021/09/09 04:52:36;;;;;;;12.10;5.70;;;;;;;16.68;78.48;95369.97;5036088;28;21009;-80
2021/09/09 04:55:04;;;;;;;7.10;5.90;;;;;;;16.72;77.55;95367.81;5018609;28;20486;-79
2021/09/09 04:57:31;;;;;;;7.57;5.50;;;;;;;16.75;76.91;95369.31;5002427;28;20873;-80
2021/09/09 04:59:58;;;;;;;9.90;5.77;;;;;;;16.76;78.26;95366.53;5036089;28;20446;-79
2021/09/09 05:02:25;;;;;;;9.00;6.00;;;;;;;16.64;78.10;95365.94;5035987;28;20579;-79
2021/09/09 05:04:53;;;;;;;8.83;6.07;;;;;;;16.41;78.97;95362.94;5036631;28;20437;-80
2021/09/09 05:07:20;;;;;;;9.60;8.17;;;;;;;16.47;78.93;95364.13;5036865;28;20483;-78
2021/09/09 05:09:47;;;;;;;6.97;6.30;;;;;;;16.38;79.43;95365.91;5036952;28;20453;-80
2021/09/09 05:12:14;;;;;;;7.30;5.87;;;;;;;16.47;80.54;95372.09;5037104;28;20822;-79
2021/09/09 05:14:41;;;;;;;6.33;5.73;;;;;;;16.40;79.45;95368.41;5037160;28;20953;-81
2021/09/09 05:17:08;;;;;;;8.07;5.60;;;;;;;16.38;79.55;95367.72;5036992;28;20544;-80
2021/09/09 05:19:35;;;;;;;14.30;5.80;;;;;;;16.24;80.46;95357.69;5037316;28;20441;-80
2021/09/09 05:22:04;;;;;;;6.30;5.70;;;;;;;16.19;81.39;95365.25;5036881;28;20480;-80
2021/09/09 05:34:37;;;;;;;13.37;5.90;;;;;;;16.20;82.26;95356.34;5036526;28;20443;-81
2021/09/09 05:37:06;;;;;;;5.87;5.03;;;;;;;16.31;81.28;95358.72;5016594;28;20440;-81
2021/09/09 05:39:33;;;;;;;6.13;5.63;;;;;;;16.41;81.21;95362.13;5016832;28;20448;-81
2021/09/09 05:42:00;;;;;;;8.37;5.00;;;;;;;16.25;80.71;95362.00;5035212;28;20484;-81
2021/09/09 05:44:27;;;;;;;6.20;5.60;;;;;;;16.04;82.25;95360.50;5035251;28;20933;-80
2021/09/09 05:46:54;;;;;;;7.63;5.23;;;;;;;15.86;83.47;95358.81;5035554;28;20779;-81
2021/09/09 05:49:21;;;;;;;13.40;5.93;;;;;;;15.78;83.85;95360.41;5033569;28;20998;-81
2021/09/09 05:51:47;;;;;;;9.63;5.10;;;;;;;15.67;84.15;95357.16;5016184;28;20476;-81
2021/09/09 05:54:16;;;;;;;13.67;5.87;;;;;;;15.94;83.62;95367.69;5034853;28;20449;-81
2021/09/09 05:56:43;;;;;;;6.73;5.20;;;;;;;15.90;83.78;95358.41;5035116;28;20448;-81
2021/09/09 05:59:10;;;;;;;9.60;5.80;;;;;;;15.93;85.68;95351.97;5035252;28;20455;-81
2021/09/09 06:01:37;;;;;;;7.93;6.30;;;;;;;15.73;85.64;95351.25;5034622;28;20451;-81
2021/09/09 06:04:08;;;;;;;5.70;5.30;;;;;;;15.66;87.07;95351.03;5035007;28;20504;-81
2021/09/09 06:06:35;;;;;;;7.23;6.37;;;;;;;15.87;86.00;95350.72;5034669;28;20533;-81
2021/09/09 06:09:02;;;;;;;7.13;6.40;;;;;;;15.89;88.36;95355.88;5034484;28;20449;-81
2021/09/09 06:11:30;;;;;;;7.37;6.17;;;;;;;15.93;86.70;95352.78;5034457;28;20444;-81
2021/09/09 06:13:57;;;;;;;7.03;6.43;;;;;;;16.18;87.82;95352.97;5034455;28;20998;-81
2021/09/09 06:16:24;;;;;;;17.83;6.17;;;;;;;16.03;87.20;95356.19;5034364;28;20875;-81
2021/09/09 06:18:51;;;;;;;5.77;5.23;;;;;;;16.02;86.04;95358.97;5034504;28;20450;-81
2021/09/09 06:21:18;;;;;;;6.07;5.20;;;;;;;15.99;84.46;95348.69;5034182;28;20823;-81
2021/09/09 06:23:45;;;;;;;5.50;5.10;;;;;;;15.91;81.84;95353.94;5034266;28;20500;-80
2021/09/09 06:26:12;;;;;;;4.70;4.40;;;;;;;15.86;82.20;95354.34;5034138;28;21001;-80
2021/09/09 06:28:40;;;;;;;5.70;5.20;;;;;;;15.80;82.54;95349.69;5034366;28;20930;-80
2021/09/09 06:31:07;;;;;;;4.87;4.50;;;;;;;16.02;84.17;95356.34;5034067;28;20884;-81
2021/09/09 06:33:34;;;;;;;6.33;4.77;;;;;;;16.20;84.36;95356.34;5034361;28;20525;-81
2021/09/09 06:36:01;;;;;;;5.90;5.40;;;;;;;16.41;84.51;95351.50;5033834;28;20450;-81
2021/09/09 06:38:28;;;;;;;4.53;4.10;;;;;;;16.46;82.44;95351.06;5034120;28;20813;-81
2021/09/09 06:40:55;;;;;;;6.10;4.40;;;;;;;16.61;82.25;95362.75;5015682;28;21019;-82
2021/09/09 06:43:22;;;;;;;7.63;4.20;;;;;;;16.66;81.46;95355.22;5033978;28;20488;-81
2021/09/09 06:45:51;;;;;;;5.57;4.63;;;;;;;16.81;81.65;95356.31;5015396;28;20446;-81
2021/09/09 06:48:18;;;;;;;4.70;4.30;;;;;;;16.91;81.12;95364.13;5033814;28;21024;-81
2021/09/09 06:50:45;;;;;;;5.53;4.53;;;;;;;16.96;80.50;95362.69;5015417;28;20442;-81
2021/09/09 06:53:11;;;;;;;5.40;4.83;;;;;;;17.04;80.18;95364.53;5014967;28;20483;-81
2021/09/09 06:55:38;;;;;;;9.03;6.07;;;;;;;17.10;80.05;95374.53;5033685;28;20801;-81
2021/09/09 06:58:05;;;;;;;8.83;5.33;;;;;;;17.01;80.02;95381.59;5033508;28;20496;-81
2021/09/09 07:00:32;;;;;;;8.23;5.37;;;;;;;16.84;81.88;95376.38;5033539;28;20464;-81
2021/09/09 07:03:01;;;;;;;7.00;5.27;;;;;;;16.87;82.02;95376.06;5033565;28;20577;-81
2021/09/09 07:05:28;;;;;;;10.50;4.60;;;;;;;16.84;81.76;95379.00;5033696;28;20473;-81
2021/09/09 07:07:55;;;;;;;5.33;4.73;;;;;;;16.98;82.26;95378.44;5033286;28;20960;-81
2021/09/09 07:10:22;;;;;;;7.50;5.20;;;;;;;17.04;81.98;95370.66;5033379;28;20445;-81
2021/09/09 07:12:49;;;;;;;5.17;4.53;;;;;;;17.12;80.38;95380.50;5015302;28;20454;-81
2021/09/09 07:15:16;;;;;;;9.30;4.80;;;;;;;17.03;80.85;95378.78;5015028;28;20443;-81
2021/09/09 07:17:43;;;;;;;6.50;4.77;;;;;;;16.98;82.22;95366.00;5033428;28;20456;-81
2021/09/09 07:20:13;;;;;;;7.03;4.70;;;;;;;17.19;81.54;95384.19;5033185;28;20480;-81
2021/09/09 07:22:40;;;;;;;5.17;4.77;;;;;;;17.25;80.76;95386.19;5032911;28;21019;-81
2021/09/09 07:25:09;;;;;;;5.97;4.80;;;;;;;17.33;79.58;95383.56;5033064;28;20453;-81
2021/09/09 07:27:36;;;;;;;7.20;4.30;;;;;;;17.45;79.30;95386.78;5033095;28;20447;-81
2021/09/09 07:30:03;;;;;;;7.57;4.70;;;;;;;17.45;78.77;95380.66;5030958;28;20448;-81
2021/09/09 07:32:30;;;;;;;4.40;4.10;;;;;;;17.55;78.34;95384.00;5033150;28;20823;-81
2021/09/09 07:34:57;;;;;;;10.13;3.97;;;;;;;17.65;77.38;95390.03;5033326;28;20467;-81
2021/09/09 07:37:26;;;;;;;5.80;4.83;;;;;;;17.66;77.41;95389.03;5033180;28;20443;-81
2021/09/09 07:39:53;;;;;;;5.10;4.60;;;;;;;17.69;78.27;95396.69;5014626;28;20523;-81
2021/09/09 07:42:20;;;;;;;7.67;4.30;;;;;;;17.58;79.43;95399.59;5032744;28;20537;-81
2021/09/09 07:44:47;;;;;;;5.50;4.10;;;;;;;17.26;80.58;95398.47;5032946;28;20443;-81
2021/09/09 07:47:14;;;;;;;9.30;4.40;;;;;;;17.25;80.61;95407.41;5033090;28;20469;-81
2021/09/09 07:49:41;;;;;;;6.80;4.53;;;;;;;16.91;81.70;95411.84;5032888;28;20493;-81
2021/09/09 07:52:08;;;;;;;5.40;4.10;;;;;;;16.80;82.15;95406.81;5032334;28;20476;-81
2021/09/09 07:54:36;;;;;;;6.27;4.70;;;;;;;16.74;82.93;95408.25;5032890;28;20457;-81
2021/09/09 07:57:03;;;;;;;5.47;4.73;;;;;;;16.85;81.79;95402.72;5032384;28;20505;-81
2021/09/09 07:59:30;;;;;;;9.27;4.40;;;;;;;16.82;81.88;95404.84;5032524;28;20442;-81
2021/09/09 08:01:57;;;;;;;5.80;4.20;;;;;;;16.88;82.06;95407.69;5014118;28;20439;-81
2021/09/09 08:04:24;;;;;;;10.73;4.40;;;;;;;16.77;81.57;95404.47;5032321;28;20569;-81
2021/09/09 08:06:51;;;;;;;5.73;4.20;;;;;;;16.73;81.78;95407.41;5032715;28;20453;-82
2021/09/09 08:09:18;;;;;;;12.33;5.03;;;;;;;16.85;82.54;95409.84;5032882;28;20473;-81
2021/09/09 08:11:46;;;;;;;15.67;3.93;;;;;;;16.81;83.64;95408.50;5013420;28;20427;-81
2021/09/09 08:14:13;;;;;;;5.20;4.60;;;;;;;16.95;84.81;95407.91;5032608;28;20442;-81
2021/09/09 08:16:40;;;;;;;7.70;3.83;;;;;;;16.84;83.41;95402.88;5013834;28;20565;-81
2021/09/09 08:19:07;;;;;;;6.03;4.27;;;;;;;16.84;83.88;95408.19;5032671;28;20446;-81
2021/09/09 08:21:34;;;;;;;4.20;3.80;;;;;;;16.84;83.80;95397.56;5032585;28;20460;-81
2021/09/09 08:24:01;;;;;;;9.10;3.70;;;;;;;16.90;83.17;95403.06;5032276;28;20474;-81
2021/09/09 08:26:28;;;;;;;4.37;3.63;;;;;;;16.75;82.24;95403.78;5032285;28;20447;-81
2021/09/09 08:28:56;;;;;;;4.13;3.83;;;;;;;16.80;84.29;95404.19;5032195;28;20446;-81
2021/09/09 08:31:23;;;;;;;5.40;4.07;;;;;;;16.69;85.39;95406.06;5013922;28;20450;-81
2021/09/09 08:33:50;;;;;;;18.83;4.17;;;;;;;16.71;87.04;95404.09;5032217;28;20446;-81
2021/09/09 08:36:18;;;;;;;5.20;4.50;;;;;;;16.83;87.37;95399.41;5032484;28;20446;-81
2021/09/09 08:38:46;;;;;;;5.17;4.67;;;;;;;16.85;88.25;95401.88;5013838;28;20981;-81
2021/09/09 08:41:13;;;;;;;7.87;3.83;;;;;;;16.85;87.34;95404.53;5013952;28;20442;-81
2021/09/09 08:43:40;;;;;;;4.80;4.33;;;;;;;16.94;87.86;95408.88;5032171;28;20489;-81
2021/09/09 08:46:11;;;;;;;6.17;4.30;;;;;;;16.93;88.47;95404.59;5032162;28;20446;-81
2021/09/09 08:48:39;;;;;;;9.10;5.10;;;;;;;17.15;87.71;95408.53;5031904;28;20443;-81
2021/09/09 08:51:07;;;;;;;5.00;4.60;;;;;;;17.18;89.27;95403.72;5031767;28;20450;-81
2021/09/09 08:53:34;;;;;;;6.10;4.93;;;;;;;17.24;87.27;95407.56;5032567;28;20557;-81
2021/09/09 08:56:00;;;;;;;9.90;5.03;;;;;;;17.42;87.96;95410.16;5031985;28;20480;-81
2021/09/09 08:58:27;;;;;;;5.23;3.90;;;;;;;17.33;88.03;95399.47;5032254;28;20443;-81
2021/09/09 09:01:10;;;;;;;6.40;5.30;;;;;;;17.55;88.58;95405.22;5031749;28;20449;-81
2021/09/09 09:03:50;;;;;;;14.17;5.50;;;;;;;17.45;87.39;95401.88;5046589;28;20479;-81
2021/09/09 09:06:40;;;;;;;5.43;4.80;;;;;;;17.39;87.31;95400.69;5032184;28;20439;-81
2021/09/09 09:09:10;;;;;;;6.87;5.00;;;;;;;17.32;88.05;95400.47;5031761;28;20505;-81
2021/09/09 09:11:39;;;;;;;4.80;4.33;;;;;;;17.29;88.22;95405.28;5031711;28;20919;-81
2021/09/09 09:14:09;;;;;;;10.03;4.50;;;;;;;17.32;86.56;95403.13;5013099;28;20489;-81
2021/09/09 09:16:42;;;;;;;4.73;4.33;;;;;;;17.42;88.13;95402.19;5032094;28;20458;-81
2021/09/09 09:19:10;;;;;;;6.13;4.30;;;;;;;17.59;87.14;95401.25;5031629;28;20450;-81
2021/09/09 09:21:41;;;;;;;4.97;4.33;;;;;;;17.88;86.79;95400.88;5032238;28;20428;-81
2021/09/09 09:24:09;;;;;;;5.60;4.40;;;;;;;17.94;86.59;95392.28;5033676;28;20561;-81
2021/09/09 09:26:36;;;;;;;5.77;5.00;;;;;;;18.02;86.63;95391.47;5035545;28;20526;-81
2021/09/09 09:29:04;;;;;;;4.03;3.50;;;;;;;17.81;83.79;95392.75;5035787;28;20448;-81
2021/09/09 09:31:35;;;;;;;7.93;4.17;;;;;;;17.72;85.57;95399.03;5016860;28;20533;-81
2021/09/09 09:34:05;;;;;;;5.10;4.23;;;;;;;17.62;84.65;95391.16;5035290;28;20446;-81
2021/09/09 09:36:33;;;;;;;5.00;4.30;;;;;;;17.60;86.65;95390.47;5035282;28;20440;-81
2021/09/09 09:39:07;;;;;;;5.80;4.80;;;;;;;17.69;87.17;95390.56;5035671;28;20445;-81
2021/09/09 09:41:35;;;;;;;4.33;4.03;;;;;;;17.49;85.40;95395.25;5016757;28;20939;-81
2021/09/09 09:44:04;;;;;;;6.63;4.67;;;;;;;17.65;87.03;95390.03;5035276;28;20580;-80
2021/09/09 09:46:33;;;;;;;6.13;4.43;;;;;;;17.77;87.59;95383.44;5016563;28;20907;-81
2021/09/09 09:49:28;;;;;;;6.07;5.57;;;;;;;17.88;86.92;95385.78;5034935;28;20494;-81
2021/09/09 09:51:56;;;;;;;6.33;5.80;;;;;;;17.95;86.72;95389.47;5034818;28;20476;-81
2021/09/09 09:54:25;;;;;;;6.70;5.77;;;;;;;18.05;86.39;95388.47;5034898;28;20534;-81
2021/09/09 09:56:53;;;;;;;6.43;5.93;;;;;;;18.16;87.04;95388.97;5034635;28;20459;-81
2021/09/09 09:59:20;;;;;;;7.07;6.37;;;;;;;18.23;86.58;95383.88;5034826;28;20939;-81
2021/09/09 10:01:48;;;;;;;6.93;5.33;;;;;;;18.22;86.21;95384.84;5034678;28;20483;-81
2021/09/09 10:04:16;;;;;;;6.77;5.60;;;;;;;18.27;85.20;95379.88;5034655;28;20484;-81
2021/09/09 10:06:47;;;;;;;10.50;5.53;;;;;;;18.32;84.47;95377.56;5034694;28;20448;-81
2021/09/09 10:09:15;;;;;;;8.20;5.07;;;;;;;18.34;84.44;95378.22;5034674;28;20894;-81
2021/09/09 10:11:42;;;;;;;6.60;4.30;;;;;;;18.41;84.01;95381.03;5034707;28;20441;-81
2021/09/09 10:14:15;;;;;;;9.87;6.20;;;;;;;18.47;84.19;95369.72;5034557;28;20447;-81
2021/09/09 10:16:43;;;;;;;5.10;4.70;;;;;;;18.50;84.55;95372.06;5034426;28;20569;-81
2021/09/09 10:19:12;;;;;;;8.10;5.73;;;;;;;18.57;83.20;95373.06;5034504;28;20957;-81
2021/09/09 10:21:46;;;;;;;5.60;4.30;;;;;;;18.56;82.49;95372.25;5034606;28;20480;-81
2021/09/09 10:24:17;;;;;;;6.70;4.00;;;;;;;18.51;81.41;95369.25;5034456;28;20995;-81
2021/09/09 10:26:44;;;;;;;6.80;4.43;;;;;;;18.46;79.00;95368.91;5034633;28;20984;-81
2021/09/09 10:29:47;;;;;;;7.47;4.13;;;;;;;18.52;78.83;95372.75;5034454;28;20457;-81
2021/09/09 10:33:02;;;;;;;5.20;4.57;;;;;;;18.47;79.12;95359.94;5012055;28;20539;-81
2021/09/09 10:35:39;;;;;;;6.20;3.73;;;;;;;18.51;79.75;95358.63;5011368;28;20544;-81
2021/09/09 10:38:28;;;;;;;4.90;4.13;;;;;;;18.55;79.28;95362.59;5012052;28;20462;-81
2021/09/09 10:40:56;;;;;;;3.50;3.20;;;;;;;18.55;78.39;95367.91;5012035;28;20519;-81
2021/09/09 10:43:48;;;;;;;4.80;4.30;;;;;;;18.61;79.74;95360.28;5011799;28;20450;-81
2021/09/09 10:46:16;;;;;;;10.03;4.50;;;;;;;18.60;78.71;95363.94;5012041;28;20537;-81
2021/09/09 10:48:46;;;;;;;8.43;3.77;;;;;;;18.45;76.47;95361.09;5011829;28;20532;-81
2021/09/09 10:51:18;;;;;;;8.47;4.20;;;;;;;18.56;76.95;95358.94;5011791;28;20429;-81
2021/09/09 10:53:54;;;;;;;3.70;3.20;;;;;;;18.66;77.78;95357.97;5011754;28;20465;-81
2021/09/09 10:56:23;;;;;;;3.93;3.03;;;;;;;18.62;74.20;95357.47;4931212;28;20448;-81
2021/09/09 10:59:09;;;;;;;3.40;3.10;;;;;;;18.68;75.10;95358.63;5011636;28;20994;-81
2021/09/09 11:01:36;;;;;;;8.70;4.17;;;;;;;18.57;74.84;95357.94;5011352;28;20444;-81
2021/09/09 11:04:03;;;;;;;4.00;3.10;;;;;;;18.59;75.05;95363.09;5011688;28;20881;-81
2021/09/09 11:06:30;;;;;;;5.00;3.20;;;;;;;18.48;74.99;95361.59;5011518;28;20452;-81
2021/09/09 11:09:12;;;;;;;5.93;4.27;;;;;;;18.62;74.85;95357.47;5019950;28;20449;-81
2021/09/09 11:11:39;;;;;;;3.80;3.50;;;;;;;18.62;73.98;95354.81;5033561;28;20447;-81
2021/09/09 11:14:08;;;;;;;3.73;3.40;;;;;;;18.60;75.17;95355.94;5033390;28;20528;-81
2021/09/09 11:16:37;;;;;;;3.90;3.50;;;;;;;18.67;75.00;95354.31;5033245;28;20453;-81
2021/09/09 11:19:05;;;;;;;20.50;6.77;;;;;;;18.75;74.62;95349.81;5033312;28;21032;-81
2021/09/09 11:21:35;;;;;;;5.33;3.03;;;;;;;18.84;73.63;95353.28;5014970;28;20532;-81
2021/09/09 11:24:07;;;;;;;4.43;3.43;;;;;;;18.96;73.51;95343.13;4998180;28;20489;-81
2021/09/09 11:26:34;;;;;;;3.53;3.23;;;;;;;18.90;72.99;95338.47;5032980;28;20958;-81
2021/09/09 11:29:02;;;;;;;4.60;3.67;;;;;;;18.92;74.13;95332.00;5033479;28;21004;-81
2021/09/09 11:31:30;;;;;;;4.80;3.20;;;;;;;18.84;73.18;95335.50;5033468;28;20913;-82
2021/09/09 11:33:59;;;;;;;7.53;3.07;;;;;;;18.89;73.32;95332.34;5014578;28;20532;-82
2021/09/09 11:36:27;;;;;;;4.10;3.40;;;;;;;18.95;73.17;95326.31;5033041;28;20486;-81
2021/09/09 11:38:57;;;;;;;8.17;3.47;;;;;;;18.94;72.74;95334.47;5033062;28;20453;-81
2021/09/09 11:41:29;;;;;;;3.80;2.93;;;;;;;19.06;72.84;95327.78;5032902;28;20448;-81
2021/09/09 11:43:58;;;;;;;7.00;2.60;;;;;;;19.24;71.99;95330.22;5032920;28;20489;-82
2021/09/09 11:46:30;;;;;;;3.70;3.40;;;;;;;19.42;71.29;95328.16;5032792;28;20505;-82
2021/09/09 11:48:58;;;;;;;7.90;2.67;;;;;;;19.59;70.12;95329.75;5032797;28;20450;-82
2021/09/09 11:51:36;;;;;;;5.93;3.13;;;;;;;19.68;66.77;95331.38;5032720;28;20548;-81
2021/09/09 11:54:05;;;;;;;9.10;3.10;;;;;;;19.30;71.15;95326.88;5032850;28;20512;-82
2021/09/09 11:56:33;;;;;;;3.37;3.07;;;;;;;19.25;71.58;95319.41;5032807;28;20999;-81
2021/09/09 11:59:03;;;;;;;6.70;3.77;;;;;;;19.52;73.08;95317.28;5032665;28;20822;-81
2021/09/09 12:01:32;;;;;;;5.70;2.80;;;;;;;19.68;69.90;95322.56;5014113;28;20524;-82